Time;durP1;ratioP1;P1;durP2;ratioP2;P2;SDS_P1;SDS_P2;PMS_P1;PMS_P2;Temp;Humidity;BMP_temperature;BMP_pressure;BME280_temperature;BME280_humidity;BME280_pressure;Samples;Min_cycle;Max_cycle;Signal;HPM_P1;HPM_P2
2021/03/31 00:02:14;;;;;;;;;34.75;31.50;;;;;4.93;70.75;102727.06;5135600;27;11505;-74
2021/03/31 00:05:10;;;;;;;;;27.75;27.25;;;;;4.77;71.36;102716.84;5137423;27;11487;-74
2021/03/31 00:08:07;;;;;;;;;30.50;29.25;;;;;4.83;71.24;102721.34;5122738;27;11492;-74
2021/03/31 00:11:02;;;;;;;;;27.00;27.00;;;;;4.82;71.29;102722.41;5137800;27;11507;-73
2021/03/31 00:13:58;;;;;;;;;30.50;30.50;;;;;5.01;70.85;102716.53;5136342;27;11510;-74
2021/03/31 00:16:55;;;;;;;;;30.25;28.50;;;;;5.14;70.65;102726.38;5137670;27;12199;-73
2021/03/31 00:19:50;;;;;;;;;31.00;29.25;;;;;5.02;70.27;102728.31;5137146;27;11492;-73
2021/03/31 00:22:46;;;;;;;;;27.25;27.25;;;;;5.05;70.64;102714.09;5136863;27;11597;-74
2021/03/31 00:25:42;;;;;;;;;30.00;26.25;;;;;5.16;70.28;102717.91;5137046;27;11647;-73
2021/03/31 00:28:38;;;;;;;;;31.25;30.00;;;;;5.20;69.98;102724.53;5123306;27;12402;-74
2021/03/31 00:31:05;;;;;;;;;24.00;24.00;;;;;5.22;69.90;102716.94;5136752;27;11681;-73
2021/03/31 00:33:55;;;;;;;;;34.00;34.00;;;;;5.14;69.98;102712.66;5122160;27;12257;-73
2021/03/31 00:36:50;;;;;;;;;24.25;24.25;;;;;4.94;70.70;102710.34;5135444;27;11618;-73
2021/03/31 00:39:19;;;;;;;;;29.50;29.50;;;;;4.88;71.30;102710.47;5136651;27;11555;-73
2021/03/31 00:41:46;;;;;;;;;29.50;29.50;;;;;4.98;70.88;102702.44;5139569;27;11484;-73
2021/03/31 00:44:29;;;;;;;;;30.00;30.00;;;;;4.82;71.87;102706.78;5141780;27;11490;-74
2021/03/31 00:46:57;;;;;;;;;21.75;21.75;;;;;4.84;71.40;102703.84;5157935;27;11497;-73
2021/03/31 00:49:39;;;;;;;;;31.75;30.75;;;;;5.11;71.06;102709.56;5141204;27;11512;-74
2021/03/31 00:52:07;;;;;;;;;35.75;35.75;;;;;5.16;70.66;102715.16;5121481;27;11481;-73
2021/03/31 00:54:43;;;;;;;;;40.00;36.00;;;;;5.28;69.92;102715.91;5157228;27;11477;-74
2021/03/31 00:57:11;;;;;;;;;29.50;29.50;;;;;5.31;70.11;102712.69;5157826;27;11577;-72
2021/03/31 00:59:43;;;;;;;;;27.75;27.75;;;;;5.34;70.11;102714.94;5157046;27;11519;-72
2021/03/31 01:02:12;;;;;;;;;34.00;34.00;;;;;5.34;69.49;102709.44;5156463;27;11551;-72
2021/03/31 01:04:53;;;;;;;;;29.25;29.25;;;;;5.37;69.53;102705.38;5141637;27;11506;-72
2021/03/31 01:07:50;;;;;;;;;25.75;25.25;;;;;5.19;69.82;102707.25;5156292;27;11483;-72
2021/03/31 01:10:50;;;;;;;;;22.50;22.50;;;;;5.30;69.07;102702.81;5152670;27;11476;-72
2021/03/31 01:13:51;;;;;;;;;22.50;21.25;;;;;5.11;69.89;102702.16;5135419;27;11498;-73
2021/03/31 01:16:51;;;;;;;;;28.00;25.00;;;;;5.23;69.52;102702.13;5134840;27;11530;-74
2021/03/31 01:19:36;;;;;;;;;28.00;26.50;;;;;5.14;69.38;102693.47;5136539;27;11491;-73
2021/03/31 01:22:32;;;;;;;;;20.25;20.25;;;;;5.11;69.96;102690.38;5136053;27;12260;-74
2021/03/31 01:25:14;;;;;;;;;28.75;28.75;;;;;5.12;70.05;102695.59;5118533;27;11488;-73
2021/03/31 01:28:08;;;;;;;;;20.75;20.75;;;;;5.07;69.99;102690.03;5118686;27;11533;-73
2021/03/31 01:31:04;;;;;;;;;27.25;25.75;;;;;5.06;69.77;102696.59;5135770;27;11517;-73
2021/03/31 01:33:58;;;;;;;;;23.25;23.25;;;;;5.00;70.15;102692.09;5127389;27;12357;-73
2021/03/31 01:36:32;;;;;;;;;25.75;23.00;;;;;5.07;70.14;102692.78;5135431;27;11528;-73
2021/03/31 01:39:04;;;;;;;;;21.75;20.50;;;;;5.04;69.95;102690.50;5135617;27;11522;-73
2021/03/31 01:42:01;;;;;;;;;11.75;11.00;;;;;4.82;70.49;102689.50;5141334;27;11463;-72
2021/03/31 01:45:00;;;;;;;;;20.50;20.50;;;;;4.95;70.16;102695.56;5155088;27;11544;-73
2021/03/31 01:47:59;;;;;;;;;25.25;25.25;;;;;4.90;70.72;102700.94;5140987;27;11485;-72
2021/03/31 01:51:05;;;;;;;;;22.00;20.00;;;;;4.67;71.47;102687.28;5155187;27;11483;-72
2021/03/31 01:54:03;;;;;;;;;31.50;29.75;;;;;4.84;70.75;102687.38;5133822;27;11546;-72
2021/03/31 01:56:31;;;;;;;;;23.25;23.25;;;;;4.70;71.20;102690.41;5135591;27;11575;-73
2021/03/31 01:59:18;;;;;;;;;23.25;23.25;;;;;4.54;71.87;102691.16;5134836;27;11503;-72
2021/03/31 02:02:15;;;;;;;;;28.75;28.75;;;;;4.61;71.90;102691.88;5134503;27;11517;-73
2021/03/31 02:05:11;;;;;;;;;22.50;22.00;;;;;4.58;72.19;102684.09;5133824;27;11514;-73
2021/03/31 02:08:08;;;;;;;;;21.25;21.25;;;;;4.68;71.42;102689.81;5120873;27;11605;-73
2021/03/31 02:10:36;;;;;;;;;25.75;25.25;;;;;4.65;71.80;102692.19;5139092;27;11488;-73
2021/03/31 02:13:09;;;;;;;;;22.75;22.75;;;;;4.72;71.07;102684.66;5155466;27;11541;-73
2021/03/31 02:15:50;;;;;;;;;32.25;26.50;;;;;4.47;71.66;102679.50;5155632;27;11480;-73
2021/03/31 02:18:35;;;;;;;;;27.25;27.25;;;;;4.73;71.12;102681.69;5152967;27;11517;-73
2021/03/31 02:21:04;;;;;;;;;35.00;34.75;;;;;4.76;71.19;102683.13;5144315;27;11505;-73
2021/03/31 02:23:55;;;;;;;;;29.25;28.25;;;;;4.52;71.73;102678.75;5135455;27;11493;-74
2021/03/31 02:26:51;;;;;;;;;22.00;19.25;;;;;4.36;72.34;102664.72;5133777;27;11487;-73
2021/03/31 02:29:39;;;;;;;;;28.25;27.75;;;;;4.11;72.88;102658.69;5134769;27;11485;-73
2021/03/31 02:32:09;;;;;;;;;25.75;24.25;;;;;4.27;72.89;102662.59;5134599;27;11590;-73
2021/03/31 02:35:06;;;;;;;;;28.50;26.25;;;;;4.45;72.16;102657.81;5120239;27;11508;-72
2021/03/31 02:37:38;;;;;;;;;35.50;31.25;;;;;4.30;72.59;102662.16;5134476;27;11606;-73
2021/03/31 02:40:08;;;;;;;;;37.00;37.00;;;;;4.39;72.14;102661.53;5134463;27;11496;-73
2021/03/31 02:43:07;;;;;;;;;34.00;32.25;;;;;4.45;72.03;102657.00;5119643;27;11527;-73
2021/03/31 02:45:53;;;;;;;;;39.75;39.75;;;;;4.49;71.96;102660.91;5118621;27;11531;-72
2021/03/31 02:48:51;;;;;;;;;34.25;34.25;;;;;4.42;72.34;102660.19;5135836;27;12226;-72
2021/03/31 02:51:22;;;;;;;;;42.25;38.25;;;;;4.46;72.15;102669.63;5137230;27;11601;-73
2021/03/31 02:53:53;;;;;;;;;41.50;38.75;;;;;4.55;72.11;102673.63;5132460;27;11522;-73
2021/03/31 02:56:21;;;;;;;;;42.50;39.75;;;;;4.38;72.73;102670.00;5150519;27;11472;-72
2021/03/31 02:58:49;;;;;;;;;36.25;35.00;;;;;4.41;73.01;102662.09;5155768;27;11537;-73
2021/03/31 03:01:45;;;;;;;;;45.25;42.75;;;;;4.58;72.52;102670.41;5153609;27;11527;-73
2021/03/31 03:04:17;;;;;;;;;39.75;39.50;;;;;4.66;72.22;102670.03;5155480;27;11508;-72
2021/03/31 03:07:13;;;;;;;;;39.25;39.00;;;;;4.72;72.30;102668.22;5153971;27;11490;-72
2021/03/31 03:10:11;;;;;;;;;38.25;35.25;;;;;4.76;71.87;102665.84;5123699;27;11497;-73
2021/03/31 03:13:07;;;;;;;;;40.00;39.50;;;;;4.87;72.06;102670.44;5118993;27;12271;-73
2021/03/31 03:15:35;;;;;;;;;37.25;36.75;;;;;4.79;72.02;102668.09;5132786;27;11531;-72
2021/03/31 03:18:03;;;;;;;;;36.75;35.00;;;;;4.81;72.23;102666.75;5117660;27;11504;-73
2021/03/31 03:20:51;;;;;;;;;39.25;33.50;;;;;4.91;71.81;102666.97;5146842;27;12213;-73
2021/03/31 03:23:20;;;;;;;;;34.50;33.75;;;;;4.79;72.36;102671.66;5148909;27;11596;-73
2021/03/31 03:26:17;;;;;;;;;53.00;45.33;;;;;4.60;73.74;102660.06;5132504;27;12229;-73
2021/03/31 03:29:16;;;;;;;;;43.25;41.00;;;;;4.70;73.27;102668.47;5132770;27;11576;-73
2021/03/31 03:32:14;;;;;;;;;32.25;30.75;;;;;4.99;72.50;102669.31;5133548;27;11552;-73
2021/03/31 03:34:50;;;;;;;;;49.67;45.33;;;;;5.00;72.63;102670.16;5133642;27;11519;-74
2021/03/31 03:37:32;;;;;;;;;62.67;51.33;;;;;5.01;72.38;102667.16;5133639;27;11541;-74
2021/03/31 03:40:02;;;;;;;;;60.33;51.33;;;;;4.99;72.48;102660.25;5128819;27;11485;-74
2021/03/31 03:42:57;;;;;;;;;52.25;45.50;;;;;5.06;72.52;102657.34;5132755;27;11547;-74
2021/03/31 03:45:57;;;;;;;;;47.50;43.00;;;;;5.06;72.18;102649.13;5133688;27;11528;-74
2021/03/31 03:48:56;;;;;;;;;46.25;42.25;;;;;5.06;72.33;102647.22;5134361;27;11505;-73
2021/03/31 03:51:52;;;;;;;;;49.75;44.00;;;;;5.14;72.39;102648.75;5149386;27;11535;-74
2021/03/31 03:54:52;;;;;;;;;42.25;39.00;;;;;5.19;72.06;102641.41;5153214;27;11498;-74
2021/03/31 03:57:25;;;;;;;;;54.33;47.00;;;;;5.24;72.03;102643.44;5137371;27;11515;-73
2021/03/31 04:00:24;;;;;;;;;43.75;40.25;;;;;5.31;71.59;102646.84;5119003;27;11536;-74
2021/03/31 04:03:20;;;;;;;;;41.25;38.75;;;;;5.38;71.53;102638.47;5136892;27;11512;-74
2021/03/31 04:05:51;;;;;;;;;47.50;43.75;;;;;5.32;71.28;102648.50;5154102;27;11576;-74
2021/03/31 04:08:27;;;;;;;;;54.50;48.00;;;;;5.37;71.33;102645.00;5151920;27;11486;-74
2021/03/31 04:11:23;;;;;;;;;51.00;44.75;;;;;5.43;71.19;102652.25;5133431;27;11528;-74
2021/03/31 04:14:19;;;;;;;;;44.25;41.00;;;;;5.43;71.44;102652.25;5132140;27;11557;-73
2021/03/31 04:17:17;;;;;;;;;47.50;42.75;;;;;5.46;71.43;102651.78;5132690;27;11502;-73
2021/03/31 04:20:16;;;;;;;;;38.75;35.50;;;;;5.38;71.49;102643.94;5137420;27;11489;-74
2021/03/31 04:23:13;;;;;;;;;49.50;45.00;;;;;5.40;71.92;102645.34;5146894;27;11506;-74
2021/03/31 04:26:09;;;;;;;;;53.25;47.00;;;;;5.52;71.40;102648.00;5135073;27;11488;-73
2021/03/31 04:28:53;;;;;;;;;48.50;45.00;;;;;5.50;71.70;102644.69;5145718;27;11530;-73
2021/03/31 04:31:23;;;;;;;;;49.00;43.25;;;;;5.55;70.93;102653.84;5137484;27;11519;-73
2021/03/31 04:34:06;;;;;;;;;54.00;44.00;;;;;5.36;71.68;102641.44;5144162;27;11503;-73
2021/03/31 04:36:54;;;;;;;;;44.50;42.75;;;;;5.37;71.86;102637.63;5122338;27;12305;-76
2021/03/31 04:39:24;;;;;;;;;46.50;43.50;;;;;5.44;71.54;102631.94;5158083;27;11521;-75
2021/03/31 04:41:52;;;;;;;;;45.75;43.50;;;;;5.30;71.90;102621.31;5144066;27;11533;-75
2021/03/31 04:44:19;;;;;;;;;48.25;44.00;;;;;5.42;71.61;102617.66;5118731;27;11738;-75
2021/03/31 04:46:52;;;;;;;;;37.75;35.50;;;;;5.42;71.27;102623.16;5139225;27;11501;-74
2021/03/31 04:49:19;;;;;;;;;28.50;28.50;;;;;5.50;70.94;102619.97;5119090;27;11518;-74
2021/03/31 04:52:16;;;;;;;;;53.25;45.00;;;;;5.64;70.51;102606.75;5135166;27;11523;-75
2021/03/31 04:55:12;;;;;;;;;39.50;38.25;;;;;5.67;70.60;102609.81;5136057;27;11561;-75
2021/03/31 04:58:08;;;;;;;;;50.75;43.25;;;;;5.45;71.07;102614.44;5136515;27;11500;-74
2021/03/31 05:00:35;;;;;;;;;35.50;34.50;;;;;5.59;70.80;102610.25;5118513;27;11556;-75
2021/03/31 05:03:04;;;;;;;;;38.50;38.50;;;;;5.81;70.09;102613.88;5137734;27;11580;-75
2021/03/31 05:05:32;;;;;;;;;43.50;42.00;;;;;5.82;69.91;102611.97;5119426;27;11533;-75
2021/03/31 05:08:28;;;;;;;;;50.25;43.25;;;;;5.70;70.64;102611.25;5136095;27;12338;-74
2021/03/31 05:10:57;;;;;;;;;43.75;42.00;;;;;5.52;70.85;102609.56;5135875;27;11504;-75
2021/03/31 05:13:26;;;;;;;;;38.25;38.25;;;;;5.65;70.87;102600.19;5136807;27;11383;-75
2021/03/31 05:15:54;;;;;;;;;47.00;41.75;;;;;5.72;70.60;102598.91;5117996;27;11509;-76
2021/03/31 05:18:23;;;;;;;;;40.50;39.25;;;;;5.83;70.35;102599.91;5118179;27;11591;-76
2021/03/31 05:20:51;;;;;;;;;45.25;42.25;;;;;5.99;70.12;102603.75;5119178;27;11519;-73
2021/03/31 05:23:20;;;;;;;;;50.50;42.75;;;;;5.94;70.10;102607.25;5118361;27;11515;-75
2021/03/31 05:25:50;;;;;;;;;44.00;40.25;;;;;6.05;69.74;102608.19;5101742;27;11524;-74
2021/03/31 05:28:17;;;;;;;;;38.00;36.00;;;;;6.29;68.97;102604.16;5118586;27;11518;-75
2021/03/31 05:30:46;;;;;;;;;40.50;38.75;;;;;6.15;69.52;102605.59;5136906;27;11523;-74
2021/03/31 05:33:14;;;;;;;;;37.50;35.00;;;;;6.03;69.75;102596.63;5143612;27;11485;-74
2021/03/31 05:35:47;;;;;;;;;43.00;41.50;;;;;6.36;69.25;102604.78;5128142;27;11619;-72
2021/03/31 05:38:15;;;;;;;;;41.00;39.50;;;;;6.23;69.46;102604.34;5136694;27;11522;-76
2021/03/31 05:40:44;;;;;;;;;35.50;34.00;;;;;6.24;69.28;102608.75;5135940;27;11547;-76
2021/03/31 05:43:16;;;;;;;;;41.50;39.50;;;;;6.46;68.85;102601.31;5124398;27;11553;-76
2021/03/31 05:45:58;;;;;;;;;47.25;40.75;;;;;6.55;68.96;102601.69;5137197;27;11524;-75
2021/03/31 05:48:26;;;;;;;;;38.75;35.75;;;;;6.66;68.73;102579.53;5143949;27;11494;-76
2021/03/31 05:51:08;;;;;;;;;47.00;41.25;;;;;6.65;68.39;102575.13;5134166;27;11576;-75
2021/03/31 05:53:35;;;;;;;;;41.00;39.00;;;;;6.70;67.93;102568.88;5149320;27;11479;-75
2021/03/31 05:56:17;;;;;;;;;43.25;40.00;;;;;6.94;67.51;102572.97;5134777;27;12308;-74
2021/03/31 05:59:14;;;;;;;;;43.50;41.00;;;;;7.16;67.56;102574.81;5140041;27;11525;-74
2021/03/31 06:01:42;;;;;;;;;34.75;33.00;;;;;7.40;66.55;102575.28;5123697;27;11538;-73
2021/03/31 06:04:12;;;;;;;;;28.50;25.25;;;;;7.70;66.52;102572.75;5151285;27;11618;-73
2021/03/31 06:06:40;;;;;;;;;35.00;35.00;;;;;7.82;65.50;102589.09;5156349;27;11558;-74
2021/03/31 06:09:09;;;;;;;;;31.75;31.75;;;;;7.91;65.47;102587.47;5149227;27;11536;-74
2021/03/31 06:11:53;;;;;;;;;34.25;32.75;;;;;8.16;65.08;102591.47;5128478;27;11567;-74
2021/03/31 06:14:42;;;;;;;;;34.50;34.25;;;;;8.17;64.20;102591.19;5133090;27;11508;-73
2021/03/31 06:17:44;;;;;;;;;29.50;29.00;;;;;8.29;64.32;102589.03;5135190;27;11560;-73
2021/03/31 06:20:12;;;;;;;;;33.25;31.50;;;;;8.41;64.12;102577.78;5140162;27;11493;-71
2021/03/31 06:22:53;;;;;;;;;19.25;16.25;;;;;8.31;64.04;102580.50;5155557;27;12305;-74
2021/03/31 06:25:30;;;;;;;;;36.75;34.00;;;;;8.47;63.46;102587.75;5143427;27;11492;-74
2021/03/31 06:27:59;;;;;;;;;39.00;35.50;;;;;8.24;63.55;102580.75;5141216;27;11522;-75
2021/03/31 06:30:28;;;;;;;;;33.00;31.00;;;;;8.05;64.23;102577.63;5134844;27;11511;-74
2021/03/31 06:32:57;;;;;;;;;35.00;32.00;;;;;7.82;64.92;102580.81;5141179;27;11533;-75
2021/03/31 06:35:30;;;;;;;;;25.75;25.75;;;;;8.11;64.56;102574.88;5155371;27;11544;-73
2021/03/31 06:38:15;;;;;;;;;32.00;28.25;;;;;8.02;64.54;102580.09;5139224;27;11544;-73
2021/03/31 06:40:45;;;;;;;;;40.25;34.50;;;;;8.54;63.57;102580.06;5155835;27;12225;-73
2021/03/31 06:44:02;;;;;;;;;34.00;33.75;;;;;8.81;62.67;102576.25;5154498;27;11514;-73
2021/03/31 06:47:15;;;;;;;;;29.25;29.00;;;;;8.82;62.01;102578.75;5133581;27;11497;-72
2021/03/31 06:50:14;;;;;;;;;33.50;31.75;;;;;8.65;62.87;102578.16;5133641;27;11576;-73
2021/03/31 06:52:57;;;;;;;;;34.00;30.50;;;;;8.38;63.29;102583.88;5134079;27;11547;-73
2021/03/31 06:55:29;;;;;;;;;31.25;31.25;;;;;8.59;63.15;102588.34;5116564;27;11585;-73
2021/03/31 06:58:25;;;;;;;;;37.00;36.75;;;;;8.63;63.17;102589.47;5133740;27;11513;-73
2021/03/31 07:01:40;;;;;;;;;33.25;30.75;;;;;8.73;63.36;102587.81;5132986;27;11494;-74
2021/03/31 07:04:35;;;;;;;;;40.00;38.25;;;;;8.70;62.94;102599.41;5133606;27;11520;-74
2021/03/31 07:07:41;;;;;;;;;23.00;23.00;;;;;8.71;63.23;102579.00;5120326;27;11566;-73
2021/03/31 07:10:21;;;;;;;;;33.75;33.25;;;;;8.98;62.72;102584.31;5131571;27;11522;-74
2021/03/31 07:12:51;;;;;;;;;32.00;32.00;;;;;8.88;62.32;102577.63;5135341;27;12286;-73
2021/03/31 07:15:24;;;;;;;;;32.00;30.25;;;;;8.86;62.51;102579.03;5145063;27;11512;-74
2021/03/31 07:17:58;;;;;;;;;35.50;34.25;;;;;9.27;61.72;102573.53;5104367;27;11507;-73
2021/03/31 07:20:51;;;;;;;;;31.50;31.50;;;;;9.02;62.29;102572.41;5136651;27;11502;-74
2021/03/31 07:23:51;;;;;;;;;36.00;32.50;;;;;9.37;61.53;102570.78;5132762;27;11464;-73
2021/03/31 07:26:47;;;;;;;;;37.75;37.25;;;;;9.46;61.22;102569.94;5132562;27;11636;-72
2021/03/31 07:32:56;;;;;;;;;41.25;37.00;;;;;9.46;61.24;102560.81;5134547;27;11478;-74
2021/03/31 07:35:35;;;;;;;;;28.75;28.00;;;;;9.23;61.95;102566.91;5116532;27;11465;-73
2021/03/31 07:38:28;;;;;;;;;39.25;37.00;;;;;9.37;61.39;102557.81;5134146;27;11539;-73
2021/03/31 07:41:18;;;;;;;;;31.00;28.00;;;;;9.29;62.04;102550.06;5119059;27;11465;-73
2021/03/31 07:43:48;;;;;;;;;34.25;31.50;;;;;9.53;61.68;102555.84;5139704;27;11563;-73
2021/03/31 07:46:28;;;;;;;;;33.00;32.25;;;;;9.67;61.18;102547.81;5154589;27;11481;-73
2021/03/31 07:48:57;;;;;;;;;33.75;32.25;;;;;10.08;60.73;102551.28;5151166;27;11502;-73
2021/03/31 07:52:03;;;;;;;;;31.00;31.00;;;;;10.24;59.73;102549.31;5133515;27;11439;-74
2021/03/31 07:54:34;;;;;;;;;32.75;32.75;;;;;10.17;59.53;102540.44;5139053;27;11447;-74
2021/03/31 07:57:28;;;;;;;;;29.00;29.00;;;;;9.91;59.89;102540.56;5156276;27;11483;-73
2021/03/31 08:00:56;;;;;;;;;30.50;29.75;;;;;10.38;59.71;102539.28;5146967;27;11527;-74
2021/03/31 08:03:54;;;;;;;;;30.25;28.75;;;;;10.00;59.99;102532.50;5125755;27;11476;-74
2021/03/31 08:06:38;;;;;;;;;34.00;34.00;;;;;9.66;60.55;102538.69;5142295;27;11443;-74
2021/03/31 08:09:30;;;;;;;;;40.50;38.00;;;;;10.11;59.88;102527.75;5159972;27;11579;-72
2021/03/31 08:12:06;;;;;;;;;33.75;32.75;;;;;10.25;59.45;102523.28;5166194;27;11576;-74
2021/03/31 08:14:39;;;;;;;;;32.75;31.00;;;;;10.40;58.51;102527.94;5146135;27;11533;-74
2021/03/31 08:17:41;;;;;;;;;28.75;27.75;;;;;10.65;57.83;102530.53;5158958;27;11456;-74
2021/03/31 08:20:23;;;;;;;;;29.00;27.75;;;;;10.76;58.16;102529.38;5132222;27;11467;-74
2021/03/31 08:22:51;;;;;;;;;33.00;32.75;;;;;10.87;57.98;102505.19;5147170;27;11467;-75
2021/03/31 08:25:25;;;;;;;;;28.25;28.00;;;;;11.27;57.30;102509.56;5138365;27;11450;-75
2021/03/31 08:27:59;;;;;;;;;30.00;29.00;;;;;11.46;56.66;102506.06;5147973;27;11166;-74
2021/03/31 08:30:29;;;;;;;;;25.75;25.75;;;;;11.49;55.57;102508.22;5157912;27;10995;-73
2021/03/31 08:33:20;;;;;;;;;32.00;31.25;;;;;11.68;55.77;102511.91;5137775;27;11085;-75
2021/03/31 08:35:48;;;;;;;;;30.50;30.50;;;;;11.95;55.27;102501.06;5145718;27;11416;-73
2021/03/31 08:38:53;;;;;;;;;27.75;27.25;;;;;12.25;54.35;102497.06;5150764;27;11158;-73
2021/03/31 08:41:24;;;;;;;;;29.75;29.25;;;;;12.39;54.10;102502.72;5136710;27;10864;-73
2021/03/31 08:44:44;;;;;;;;;36.50;34.25;;;;;12.68;52.95;102498.97;5131502;27;10856;-74
2021/03/31 08:47:16;;;;;;;;;30.75;30.75;;;;;12.73;52.98;102498.91;5055685;28;10837;-74
2021/03/31 08:49:47;;;;;;;;;27.50;26.50;;;;;12.09;53.74;102495.63;5071692;28;10644;-73
2021/03/31 08:52:25;;;;;;;;;31.50;30.75;;;;;12.55;52.79;102494.16;5101046;27;10809;-73
2021/03/31 08:55:22;;;;;;;;;28.25;28.25;;;;;12.53;52.28;102497.25;5135856;27;11509;-74
2021/03/31 08:57:50;;;;;;;;;30.00;29.75;;;;;12.28;53.01;102498.44;5119396;27;10709;-74
2021/03/31 09:00:51;;;;;;;;;28.75;28.00;;;;;12.66;53.15;102495.69;5137187;27;10862;-73
2021/03/31 09:03:47;;;;;;;;;27.50;27.50;;;;;12.31;53.10;102488.69;5123904;27;10829;-74
2021/03/31 09:06:36;;;;;;;;;29.25;28.75;;;;;12.66;52.27;102490.13;5148287;27;10560;-72
2021/03/31 09:09:08;;;;;;;;;40.25;34.50;;;;;12.34;52.51;102477.00;5128346;27;10770;-73
2021/03/31 09:11:35;;;;;;;;;30.25;30.25;;;;;12.79;51.75;102472.69;5157397;27;11028;-74
2021/03/31 09:14:16;;;;;;;;;38.00;34.50;;;;;12.58;52.39;102486.09;5149088;27;11016;-73
2021/03/31 09:17:03;;;;;;;;;29.75;28.00;;;;;13.01;51.20;102472.88;5138014;27;10793;-74
2021/03/31 09:19:45;;;;;;;;;39.00;37.25;;;;;13.12;50.88;102472.72;5138275;27;10703;-73
2021/03/31 09:22:41;;;;;;;;;26.75;25.50;;;;;14.00;48.90;102468.75;5121416;27;11536;-73
2021/03/31 09:25:11;;;;;;;;;37.25;35.00;;;;;14.44;47.92;102470.00;5140356;27;10548;-75
2021/03/31 09:28:15;;;;;;;;;29.00;29.00;;;;;14.83;46.83;102474.13;5159286;27;10563;-73
2021/03/31 09:31:21;;;;;;;;;31.25;31.25;;;;;14.65;47.08;102456.47;5130116;27;10334;-75
2021/03/31 09:33:50;;;;;;;;;27.00;27.00;;;;;14.79;47.53;102451.63;5159134;27;10117;-73
2021/03/31 09:36:19;;;;;;;;;32.25;32.25;;;;;15.25;46.05;102451.25;5149739;27;9847;-74
2021/03/31 09:38:56;;;;;;;;;36.50;34.00;;;;;15.22;44.76;102446.34;5143228;27;10029;-73
2021/03/31 09:41:53;;;;;;;;;49.00;41.75;;;;;15.74;44.93;102456.94;5141376;27;9670;-73
2021/03/31 09:44:27;;;;;;;;;32.50;32.50;;;;;15.74;44.19;102449.38;5146768;27;10159;-72
2021/03/31 09:46:54;;;;;;;;;32.00;32.00;;;;;15.37;44.03;102445.09;5144000;27;9743;-73
2021/03/31 09:49:51;;;;;;;;;39.00;36.00;;;;;15.30;45.06;102441.94;5134976;27;9908;-73
2021/03/31 09:52:31;;;;;;;;;28.50;27.00;;;;;15.42;44.01;102433.81;5144141;27;10188;-69
2021/03/31 09:55:07;;;;;;;;;45.25;35.00;;;;;15.15;45.25;102432.03;5135400;27;9605;-74
2021/03/31 09:57:37;;;;;;;;;27.75;27.25;;;;;14.78;45.94;102422.13;5135448;27;10013;-74
2021/03/31 10:00:10;;;;;;;;;31.25;27.75;;;;;14.98;46.67;102423.59;5153779;27;9438;-74
2021/03/31 10:02:40;;;;;;;;;30.25;30.25;;;;;14.91;46.40;102421.25;5155911;27;9792;-74
2021/03/31 10:05:13;;;;;;;;;26.50;25.75;;;;;15.28;45.61;102422.75;5138121;27;10468;-74
2021/03/31 10:07:41;;;;;;;;;30.50;30.00;;;;;15.98;44.71;102411.84;5156094;27;9991;-74
2021/03/31 10:10:10;;;;;;;;;24.75;24.75;;;;;16.26;42.60;102418.78;5147792;27;9776;-74
2021/03/31 10:12:37;;;;;;;;;25.50;25.50;;;;;16.47;41.34;102412.50;5117612;27;9448;-74
2021/03/31 10:15:18;;;;;;;;;25.33;25.33;;;;;17.02;40.82;102411.78;5139197;27;9445;-73
2021/03/31 10:17:45;;;;;;;;;24.33;24.33;;;;;16.92;40.77;102412.97;5145972;27;9229;-72
2021/03/31 10:20:17;;;;;;;;;20.67;20.00;;;;;16.76;40.41;102407.09;5139439;27;9237;-73
2021/03/31 10:22:52;;;;;;;;;30.33;30.33;;;;;17.00;40.19;102400.94;5143709;27;8995;-73
2021/03/31 10:25:33;;;;;;;;;13.33;13.33;;;;;16.91;40.78;102397.38;5145085;27;9260;-73
2021/03/31 10:28:37;;;;;;;;;24.67;22.67;;;;;16.88;40.43;102396.06;5144274;27;9055;-73
2021/03/31 10:31:33;;;;;;;;;23.33;23.33;;;;;16.35;41.04;102397.25;5141559;27;8996;-74
2021/03/31 10:34:14;;;;;;;;;29.33;29.00;;;;;16.27;40.52;102400.06;5145764;27;9080;-72
2021/03/31 10:56:29;;;;;;;;;22.67;22.67;;;;;16.93;40.68;102361.50;5155162;27;8841;-78
2021/03/31 10:58:59;;;;;;;;;82.50;46.00;;;;;17.13;39.87;102358.00;5134737;27;8939;-76
2021/03/31 11:01:26;;;;;;;;;28.00;28.00;;;;;17.22;39.19;102350.38;5142211;27;9945;-76
2021/03/31 11:04:21;;;;;;;;;21.75;21.75;;;;;17.26;39.71;102346.94;5150778;27;9087;-76
2021/03/31 11:07:07;;;;;;;;;27.00;22.00;;;;;16.44;39.75;102352.56;5154812;27;8867;-78
2021/03/31 11:10:04;;;;;;;;;24.50;24.50;;;;;15.88;41.39;102350.78;5152456;27;9075;-76
2021/03/31 11:12:56;;;;;;;;;27.00;27.00;;;;;16.43;41.37;102341.75;5147335;27;9566;-77
2021/03/31 11:15:25;;;;;;;;;23.33;23.33;;;;;16.74;40.49;102347.94;5140175;27;9754;-76
2021/03/31 11:18:17;;;;;;;;;32.33;31.67;;;;;16.68;40.35;102343.66;5154217;27;9252;-77
2021/03/31 11:26:20;;;;;;;;;38.33;33.67;;;;;16.81;40.51;102325.91;5134533;27;8935;-77
2021/03/31 11:28:47;;;;;;;;;26.33;26.33;;;;;16.99;40.71;102331.41;5148878;27;9275;-77
2021/03/31 11:31:14;;;;;;;;;25.33;24.00;;;;;17.10;40.38;102318.69;5158454;27;8986;-75
2021/03/31 11:33:53;;;;;;;;;30.33;30.33;;;;;17.66;39.73;102322.19;5161952;27;9791;-75
2021/03/31 11:36:50;;;;;;;;;29.00;29.00;;;;;18.17;38.96;102311.72;5161501;27;9147;-78
2021/03/31 11:39:18;;;;;;;;;22.25;22.25;;;;;18.44;37.45;102307.53;5166018;27;8898;-76
2021/03/31 11:42:14;;;;;;;;;20.50;19.75;;;;;18.58;37.01;102305.22;5167076;27;8845;-78
2021/03/31 11:45:11;;;;;;;;;21.75;21.75;;;;;18.74;36.59;102305.41;5164619;27;8848;-77
2021/03/31 11:48:07;;;;;;;;;20.25;20.25;;;;;18.79;36.54;102294.81;5151406;27;8825;-77
2021/03/31 11:50:34;;;;;;;;;23.00;22.75;;;;;19.01;36.11;102289.88;5163169;27;8832;-77
2021/03/31 11:53:30;;;;;;;;;24.00;23.50;;;;;19.27;35.81;102292.38;5148847;27;8878;-76
2021/03/31 11:56:26;;;;;;;;;25.25;24.25;;;;;19.58;34.81;102286.97;5140330;27;8870;-78
2021/03/31 11:58:54;;;;;;;;;27.00;27.00;;;;;19.57;35.36;102276.91;5140393;27;8842;-77
2021/03/31 12:01:49;;;;;;;;;20.00;18.00;;;;;19.89;35.09;102288.28;5132638;27;8834;-75
2021/03/31 12:04:45;;;;;;;;;22.50;21.50;;;;;19.82;34.45;102283.28;5159282;27;8813;-76
2021/03/31 12:07:40;;;;;;;;;15.00;15.00;;;;;19.85;34.72;102278.94;5140123;27;8835;-76
2021/03/31 12:10:09;;;;;;;;;24.50;24.50;;;;;20.03;34.16;102274.66;5141039;27;8834;-77
2021/03/31 12:12:46;;;;;;;;;21.00;20.00;;;;;20.03;34.93;102268.25;5152536;27;8890;-76
2021/03/31 12:15:13;;;;;;;;;20.50;20.50;;;;;19.53;34.98;102261.09;5148112;27;8858;-77
2021/03/31 12:17:57;;;;;;;;;25.25;25.00;;;;;19.69;35.44;102274.06;5153168;27;9652;-77
2021/03/31 12:20:38;;;;;;;;;26.25;26.25;;;;;19.96;35.19;102263.22;5141463;27;8927;-77
2021/03/31 12:23:20;;;;;;;;;28.00;28.00;;;;;20.11;34.41;102261.66;5124925;27;8843;-78
2021/03/31 12:26:16;;;;;;;;;29.25;29.25;;;;;20.18;34.32;102257.03;5140208;27;8946;-81
2021/03/31 12:29:12;;;;;;;;;28.75;27.75;;;;;20.13;34.24;102250.84;5141167;27;8834;-77
2021/03/31 12:31:39;;;;;;;;;28.75;28.75;;;;;19.95;34.71;102248.38;5149432;27;8845;-76
2021/03/31 12:34:06;;;;;;;;;25.00;23.75;;;;;19.79;35.37;102238.28;5153932;27;9607;-77
2021/03/31 12:36:34;;;;;;;;;24.75;24.75;;;;;18.61;37.14;102238.09;5141905;27;8832;-77
2021/03/31 12:39:30;;;;;;;;;42.33;36.00;;;;;19.40;35.98;102241.50;5142083;27;8831;-74
2021/03/31 12:42:16;;;;;;;;;30.75;30.50;;;;;19.45;35.78;102243.22;5147915;27;9034;-77
2021/03/31 12:44:44;;;;;;;;;24.25;24.25;;;;;19.54;35.77;102241.09;5103432;27;8863;-77
2021/03/31 12:47:15;;;;;;;;;29.00;28.25;;;;;19.30;36.27;102230.75;5137082;27;8835;-77
2021/03/31 12:49:44;;;;;;;;;36.25;33.25;;;;;19.87;35.16;102228.88;5138908;27;9689;-78
2021/03/31 12:52:44;;;;;;;;;36.75;34.00;;;;;19.42;35.85;102236.34;5142041;27;8851;-76
2021/03/31 12:55:15;;;;;;;;;28.00;28.00;;;;;19.12;36.05;102235.00;5139653;27;8823;-79
2021/03/31 12:57:43;;;;;;;;;40.75;36.25;;;;;19.60;35.79;102228.50;5138151;27;8851;-77